sensor_id;sensor_type;location;lat;lon;timestamp;pressure;altitude;pressure_sealevel;temperature;humidity
63115;BME280;49208;50.874;6.466;2022-07-21T00:00:02;100697.94;;;18.80;91.99
63115;BME280;49208;50.874;6.466;2022-07-21T00:02:30;100691.84;;;18.76;92.13
63115;BME280;49208;50.874;6.466;2022-07-21T00:04:56;100683.78;;;18.76;92.42
63115;BME280;49208;50.874;6.466;2022-07-21T00:07:21;100681.94;;;18.76;92.81
63115;BME280;49208;50.874;6.466;2022-07-21T00:09:46;100689.94;;;18.78;93.40
63115;BME280;49208;50.874;6.466;2022-07-21T00:12:12;100687.13;;;18.80;92.94
63115;BME280;49208;50.874;6.466;2022-07-21T00:14:37;100673.66;;;18.80;92.30
63115;BME280;49208;50.874;6.466;2022-07-21T00:17:03;100676.53;;;18.76;91.05
63115;BME280;49208;50.874;6.466;2022-07-21T00:19:28;100674.16;;;18.72;91.24
63115;BME280;49208;50.874;6.466;2022-07-21T00:21:54;100667.09;;;18.69;91.03
63115;BME280;49208;50.874;6.466;2022-07-21T00:24:19;100669.03;;;18.67;90.71
63115;BME280;49208;50.874;6.466;2022-07-21T00:26:45;100673.56;;;18.67;90.36
63115;BME280;49208;50.874;6.466;2022-07-21T00:29:10;100678.19;;;18.65;89.64
63115;BME280;49208;50.874;6.466;2022-07-21T00:31:36;100689.06;;;18.63;89.14
63115;BME280;49208;50.874;6.466;2022-07-21T00:34:01;100686.59;;;18.60;88.63
63115;BME280;49208;50.874;6.466;2022-07-21T00:36:26;100687.75;;;18.56;88.88
63115;BME280;49208;50.874;6.466;2022-07-21T00:38:52;100678.91;;;18.54;88.73
63115;BME280;49208;50.874;6.466;2022-07-21T00:41:17;100687.19;;;18.51;88.97
63115;BME280;49208;50.874;6.466;2022-07-21T00:43:43;100695.38;;;18.49;88.24
63115;BME280;49208;50.874;6.466;2022-07-21T00:46:08;100687.31;;;18.49;88.45
63115;BME280;49208;50.874;6.466;2022-07-21T00:48:33;100679.31;;;18.48;88.61
63115;BME280;49208;50.874;6.466;2022-07-21T00:50:59;100679.31;;;18.48;88.29
63115;BME280;49208;50.874;6.466;2022-07-21T00:53:24;100688.34;;;18.47;88.10
63115;BME280;49208;50.874;6.466;2022-07-21T00:55:50;100697.59;;;18.43;88.96
63115;BME280;49208;50.874;6.466;2022-07-21T00:58:15;100693.94;;;18.44;88.27
63115;BME280;49208;50.874;6.466;2022-07-21T01:00:41;100693.09;;;18.43;88.78
63115;BME280;49208;50.874;6.466;2022-07-21T01:03:07;100690.88;;;18.35;88.57
63115;BME280;49208;50.874;6.466;2022-07-21T01:05:34;100700.78;;;18.35;89.17
63115;BME280;49208;50.874;6.466;2022-07-21T01:07:59;100704.44;;;18.34;89.00
63115;BME280;49208;50.874;6.466;2022-07-21T01:10:29;100703.59;;;18.33;88.86
63115;BME280;49208;50.874;6.466;2022-07-21T01:12:55;100699.25;;;18.31;89.40
63115;BME280;49208;50.874;6.466;2022-07-21T01:15:22;100689.44;;;18.30;89.09
63115;BME280;49208;50.874;6.466;2022-07-21T01:17:48;100692.13;;;18.30;89.64
63115;BME280;49208;50.874;6.466;2022-07-21T01:20:16;100688.78;;;18.26;89.95
63115;BME280;49208;50.874;6.466;2022-07-21T01:22:45;100683.56;;;18.23;89.83
63115;BME280;49208;50.874;6.466;2022-07-21T01:25:11;100685.19;;;18.26;89.48
63115;BME280;49208;50.874;6.466;2022-07-21T01:27:38;100696.09;;;18.24;89.55
63115;BME280;49208;50.874;6.466;2022-07-21T01:30:06;100704.19;;;18.24;89.63
63115;BME280;49208;50.874;6.466;2022-07-21T01:32:34;100700.59;;;18.24;89.66
63115;BME280;49208;50.874;6.466;2022-07-21T01:35:00;100702.44;;;18.23;89.44
63115;BME280;49208;50.874;6.466;2022-07-21T01:37:29;100711.50;;;18.22;89.33
63115;BME280;49208;50.874;6.466;2022-07-21T01:39:55;100715.06;;;18.23;89.89
63115;BME280;49208;50.874;6.466;2022-07-21T01:42:39;100707.06;;;18.21;90.30
63115;BME280;49208;50.874;6.466;2022-07-21T01:45:05;100719.75;;;18.19;90.66
63115;BME280;49208;50.874;6.466;2022-07-21T01:47:32;100719.84;;;18.17;91.11
63115;BME280;49208;50.874;6.466;2022-07-21T01:49:57;100720.91;;;18.15;90.96
63115;BME280;49208;50.874;6.466;2022-07-21T01:52:23;100721.00;;;18.13;91.32
63115;BME280;49208;50.874;6.466;2022-07-21T01:54:49;100717.53;;;18.11;91.05
63115;BME280;49208;50.874;6.466;2022-07-21T01:57:14;100731.31;;;18.07;91.21
63115;BME280;49208;50.874;6.466;2022-07-21T01:59:40;100736.00;;;18.03;91.41
63115;BME280;49208;50.874;6.466;2022-07-21T02:02:05;100733.31;;;18.03;91.83
63115;BME280;49208;50.874;6.466;2022-07-21T02:04:31;100732.53;;;18.01;92.23
63115;BME280;49208;50.874;6.466;2022-07-21T02:06:56;100737.94;;;18.01;92.07
63115;BME280;49208;50.874;6.466;2022-07-21T02:09:21;100724.66;;;17.98;92.29
63115;BME280;49208;50.874;6.466;2022-07-21T02:11:47;100726.50;;;17.97;92.30
63115;BME280;49208;50.874;6.466;2022-07-21T02:14:12;100727.44;;;17.96;91.78
63115;BME280;49208;50.874;6.466;2022-07-21T02:16:38;100722.16;;;17.95;92.56
63115;BME280;49208;50.874;6.466;2022-07-21T02:19:03;100722.16;;;17.95;92.74
63115;BME280;49208;50.874;6.466;2022-07-21T02:21:28;100719.38;;;17.96;92.83
63115;BME280;49208;50.874;6.466;2022-07-21T02:23:54;100723.81;;;17.97;92.59
63115;BME280;49208;50.874;6.466;2022-07-21T02:26:19;100716.59;;;17.98;92.70
63115;BME280;49208;50.874;6.466;2022-07-21T02:28:45;100714.84;;;17.97;93.38
63115;BME280;49208;50.874;6.466;2022-07-21T02:31:10;100718.50;;;17.96;93.00
63115;BME280;49208;50.874;6.466;2022-07-21T02:33:35;100718.59;;;17.94;93.36
63115;BME280;49208;50.874;6.466;2022-07-21T02:36:01;100721.28;;;17.94;93.98
63115;BME280;49208;50.874;6.466;2022-07-21T02:38:27;100717.75;;;17.94;93.92
63115;BME280;49208;50.874;6.466;2022-07-21T02:40:52;100716.03;;;17.93;93.89
63115;BME280;49208;50.874;6.466;2022-07-21T02:43:18;100719.66;;;17.92;93.74
63115;BME280;49208;50.874;6.466;2022-07-21T02:45:43;100716.88;;;17.93;94.43
63115;BME280;49208;50.874;6.466;2022-07-21T02:48:11;100708.81;;;17.93;94.26
63115;BME280;49208;50.874;6.466;2022-07-21T02:50:39;100716.88;;;17.93;94.15
63115;BME280;49208;50.874;6.466;2022-07-21T02:53:13;100709.75;;;17.92;94.80
63115;BME280;49208;50.874;6.466;2022-07-21T02:55:43;100704.34;;;17.92;94.82
63115;BME280;49208;50.874;6.466;2022-07-21T02:58:13;100707.94;;;17.93;94.32
63115;BME280;49208;50.874;6.466;2022-07-21T03:03:31;100707.16;;;17.91;94.22
63115;BME280;49208;50.874;6.466;2022-07-21T03:05:58;100701.88;;;17.89;94.65
63115;BME280;49208;50.874;6.466;2022-07-21T03:08:24;100692.81;;;17.90;94.56
63115;BME280;49208;50.874;6.466;2022-07-21T03:10:50;100690.25;;;17.89;94.65
63115;BME280;49208;50.874;6.466;2022-07-21T03:13:16;100685.81;;;17.88;94.24
63115;BME280;49208;50.874;6.466;2022-07-21T03:15:41;100685.81;;;17.88;94.57
63115;BME280;49208;50.874;6.466;2022-07-21T03:18:07;100676.88;;;17.87;94.84
63115;BME280;49208;50.874;6.466;2022-07-21T03:20:34;100682.16;;;17.89;94.54
63115;BME280;49208;50.874;6.466;2022-07-21T03:23:00;100681.41;;;17.87;94.57
63115;BME280;49208;50.874;6.466;2022-07-21T03:25:26;100681.41;;;17.87;94.76
63115;BME280;49208;50.874;6.466;2022-07-21T03:27:52;100677.94;;;17.85;94.64
63115;BME280;49208;50.874;6.466;2022-07-21T03:30:18;100688.59;;;17.86;95.07
63115;BME280;49208;50.874;6.466;2022-07-21T03:32:44;100695.81;;;17.86;94.70
63115;BME280;49208;50.874;6.466;2022-07-21T03:35:11;100691.41;;;17.85;94.62
63115;BME280;49208;50.874;6.466;2022-07-21T03:37:44;100682.41;;;17.84;94.86
63115;BME280;49208;50.874;6.466;2022-07-21T03:40:12;100685.13;;;17.84;94.90
63115;BME280;49208;50.874;6.466;2022-07-21T03:42:37;100690.41;;;17.86;94.71
63115;BME280;49208;50.874;6.466;2022-07-21T03:45:03;100685.03;;;17.86;94.79
63115;BME280;49208;50.874;6.466;2022-07-21T03:47:29;100684.94;;;17.87;94.62
63115;BME280;49208;50.874;6.466;2022-07-21T03:49:54;100678.69;;;17.87;94.99
63115;BME280;49208;50.874;6.466;2022-07-21T03:52:20;100682.25;;;17.87;94.73
63115;BME280;49208;50.874;6.466;2022-07-21T03:54:45;100673.97;;;17.90;94.95
63115;BME280;49208;50.874;6.466;2022-07-21T03:57:10;100679.19;;;17.93;94.91
63115;BME280;49208;50.874;6.466;2022-07-21T03:59:36;100675.50;;;17.94;94.97
63115;BME280;49208;50.874;6.466;2022-07-21T04:02:01;100680.88;;;17.94;94.96
63115;BME280;49208;50.874;6.466;2022-07-21T04:04:26;100683.50;;;17.96;95.15
63115;BME280;49208;50.874;6.466;2022-07-21T04:06:52;100680.72;;;17.97;95.14
63115;BME280;49208;50.874;6.466;2022-07-21T04:09:17;100682.34;;;18.00;95.11
63115;BME280;49208;50.874;6.466;2022-07-21T04:11:43;100680.41;;;18.02;94.62
63115;BME280;49208;50.874;6.466;2022-07-21T04:14:09;100676.75;;;18.03;94.63
63115;BME280;49208;50.874;6.466;2022-07-21T04:16:34;100675.03;;;18.02;94.58
63115;BME280;49208;50.874;6.466;2022-07-21T04:19:00;100682.25;;;18.02;94.32
63115;BME280;49208;50.874;6.466;2022-07-21T04:21:25;100681.28;;;18.03;94.64
63115;BME280;49208;50.874;6.466;2022-07-21T04:23:50;100679.34;;;18.05;94.93
63115;BME280;49208;50.874;6.466;2022-07-21T04:26:16;100689.94;;;18.08;94.77
63115;BME280;49208;50.874;6.466;2022-07-21T04:28:41;100688.88;;;18.10;94.97
63115;BME280;49208;50.874;6.466;2022-07-21T04:31:06;100681.56;;;18.12;95.27
63115;BME280;49208;50.874;6.466;2022-07-21T04:33:32;100688.50;;;18.16;94.75
63115;BME280;49208;50.874;6.466;2022-07-21T04:35:57;100686.47;;;18.20;94.64
63115;BME280;49208;50.874;6.466;2022-07-21T04:38:23;100692.63;;;18.22;94.51
63115;BME280;49208;50.874;6.466;2022-07-21T04:40:48;100688.88;;;18.25;94.55
63115;BME280;49208;50.874;6.466;2022-07-21T04:43:13;100689.72;;;18.25;94.19
63115;BME280;49208;50.874;6.466;2022-07-21T04:45:39;100692.44;;;18.25;94.06
63115;BME280;49208;50.874;6.466;2022-07-21T04:48:04;100690.59;;;18.26;94.20
63115;BME280;49208;50.874;6.466;2022-07-21T04:50:30;100698.41;;;18.30;94.10
63115;BME280;49208;50.874;6.466;2022-07-21T04:52:57;100700.88;;;18.33;93.79
63115;BME280;49208;50.874;6.466;2022-07-21T04:55:24;100709.66;;;18.37;93.69
63115;BME280;49208;50.874;6.466;2022-07-21T04:57:51;100709.53;;;18.38;93.73
63115;BME280;49208;50.874;6.466;2022-07-21T05:00:20;100713.13;;;18.39;93.37
63115;BME280;49208;50.874;6.466;2022-07-21T05:02:48;100703.88;;;18.43;93.69
63115;BME280;49208;50.874;6.466;2022-07-21T05:05:14;100701.72;;;18.48;93.38
63115;BME280;49208;50.874;6.466;2022-07-21T05:07:39;100709.31;;;18.56;93.36
63115;BME280;49208;50.874;6.466;2022-07-21T05:10:06;100702.78;;;18.60;92.90
63115;BME280;49208;50.874;6.466;2022-07-21T05:12:32;100699.88;;;18.63;92.93
63115;BME280;49208;50.874;6.466;2022-07-21T05:14:57;100708.84;;;18.64;92.83
63115;BME280;49208;50.874;6.466;2022-07-21T05:17:23;100696.31;;;18.63;92.55
63115;BME280;49208;50.874;6.466;2022-07-21T05:19:48;100718.72;;;18.63;92.67
63115;BME280;49208;50.874;6.466;2022-07-21T05:22:18;100710.78;;;18.62;92.27
63115;BME280;49208;50.874;6.466;2022-07-21T05:24:43;100699.22;;;18.60;92.76
63115;BME280;49208;50.874;6.466;2022-07-21T05:27:09;100715.56;;;18.56;92.11
63115;BME280;49208;50.874;6.466;2022-07-21T05:29:34;100716.66;;;18.54;92.53
63115;BME280;49208;50.874;6.466;2022-07-21T05:32:00;100715.97;;;18.50;92.89
63115;BME280;49208;50.874;6.466;2022-07-21T05:34:25;100726.84;;;18.49;92.99
63115;BME280;49208;50.874;6.466;2022-07-21T05:36:51;100720.81;;;18.45;92.87
63115;BME280;49208;50.874;6.466;2022-07-21T05:39:18;100718.28;;;18.42;93.28
63115;BME280;49208;50.874;6.466;2022-07-21T05:41:43;100725.53;;;18.42;93.77
63115;BME280;49208;50.874;6.466;2022-07-21T05:44:09;100711.19;;;18.41;94.14
63115;BME280;49208;50.874;6.466;2022-07-21T05:46:34;100703.75;;;18.45;94.21
63115;BME280;49208;50.874;6.466;2022-07-21T05:48:59;100703.47;;;18.49;93.54
63115;BME280;49208;50.874;6.466;2022-07-21T05:51:24;100710.94;;;18.58;92.60
63115;BME280;49208;50.874;6.466;2022-07-21T05:53:50;100700.53;;;18.67;92.00
63115;BME280;49208;50.874;6.466;2022-07-21T05:56:15;100695.13;;;18.81;92.26
63115;BME280;49208;50.874;6.466;2022-07-21T05:58:41;100695.53;;;19.02;91.82
63115;BME280;49208;50.874;6.466;2022-07-21T06:01:06;100698.19;;;19.29;90.92
63115;BME280;49208;50.874;6.466;2022-07-21T06:03:39;100699.78;;;19.59;89.47
63115;BME280;49208;50.874;6.466;2022-07-21T06:06:05;100706.31;;;19.82;88.69
63115;BME280;49208;50.874;6.466;2022-07-21T06:08:31;100704.88;;;20.02;87.72
63115;BME280;49208;50.874;6.466;2022-07-21T06:10:56;100701.09;;;20.17;86.10
63115;BME280;49208;50.874;6.466;2022-07-21T06:13:22;100689.06;;;20.34;84.20
63115;BME280;49208;50.874;6.466;2022-07-21T06:15:47;100686.84;;;20.65;83.88
63115;BME280;49208;50.874;6.466;2022-07-21T06:18:13;100685.81;;;21.38;79.39
63115;BME280;49208;50.874;6.466;2022-07-21T06:20:39;100691.06;;;22.33;74.42
63115;BME280;49208;50.874;6.466;2022-07-21T06:23:05;100694.97;;;23.39;71.14
63115;BME280;49208;50.874;6.466;2022-07-21T06:25:31;100698.94;;;23.98;67.61
63115;BME280;49208;50.874;6.466;2022-07-21T06:27:56;100694.91;;;24.54;66.45
63115;BME280;49208;50.874;6.466;2022-07-21T06:30:21;100692.56;;;25.09;61.52
63115;BME280;49208;50.874;6.466;2022-07-21T06:32:47;100696.06;;;25.88;62.63
63115;BME280;49208;50.874;6.466;2022-07-21T06:35:12;100694.19;;;26.91;56.98
63115;BME280;49208;50.874;6.466;2022-07-21T06:37:37;100699.69;;;27.27;57.64
63115;BME280;49208;50.874;6.466;2022-07-21T06:40:04;100702.63;;;27.87;56.11
63115;BME280;49208;50.874;6.466;2022-07-21T06:42:30;100700.91;;;28.55;50.44
63115;BME280;49208;50.874;6.466;2022-07-21T06:44:55;100705.94;;;28.76;50.78
63115;BME280;49208;50.874;6.466;2022-07-21T06:47:20;100713.53;;;28.13;51.84
63115;BME280;49208;50.874;6.466;2022-07-21T06:49:46;100713.81;;;27.22;54.65
63115;BME280;49208;50.874;6.466;2022-07-21T06:52:11;100716.13;;;26.16;56.77
63115;BME280;49208;50.874;6.466;2022-07-21T06:54:37;100710.50;;;25.41;57.34
63115;BME280;49208;50.874;6.466;2022-07-21T06:57:02;100700.56;;;24.41;58.36
63115;BME280;49208;50.874;6.466;2022-07-21T06:59:28;100714.16;;;23.79;61.08
63115;BME280;49208;50.874;6.466;2022-07-21T07:01:53;100707.88;;;23.26;63.48
63115;BME280;49208;50.874;6.466;2022-07-21T07:04:19;100707.31;;;22.99;65.51
63115;BME280;49208;50.874;6.466;2022-07-21T07:06:44;100705.00;;;23.59;66.13
63115;BME280;49208;50.874;6.466;2022-07-21T07:09:09;100704.44;;;25.08;61.63
63115;BME280;49208;50.874;6.466;2022-07-21T07:11:35;100703.19;;;26.18;55.71
63115;BME280;49208;50.874;6.466;2022-07-21T07:14:00;100699.47;;;26.19;54.36
63115;BME280;49208;50.874;6.466;2022-07-21T07:16:26;100697.38;;;25.93;54.40
63115;BME280;49208;50.874;6.466;2022-07-21T07:18:51;100708.63;;;26.28;55.18
63115;BME280;49208;50.874;6.466;2022-07-21T07:21:17;100700.72;;;27.26;53.67
63115;BME280;49208;50.874;6.466;2022-07-21T07:23:42;100704.63;;;28.46;49.63
63115;BME280;49208;50.874;6.466;2022-07-21T07:26:08;100714.50;;;29.81;49.11
63115;BME280;49208;50.874;6.466;2022-07-21T07:28:33;100714.09;;;30.65;45.88
63115;BME280;49208;50.874;6.466;2022-07-21T07:30:59;100713.50;;;30.77;42.75
63115;BME280;49208;50.874;6.466;2022-07-21T07:33:24;100712.06;;;29.86;44.26
63115;BME280;49208;50.874;6.466;2022-07-21T07:35:51;100708.75;;;29.00;46.24
63115;BME280;49208;50.874;6.466;2022-07-21T07:38:17;100702.59;;;28.48;47.34
63115;BME280;49208;50.874;6.466;2022-07-21T07:40:42;100706.94;;;28.58;49.23
63115;BME280;49208;50.874;6.466;2022-07-21T07:43:08;100711.72;;;29.32;49.74
63115;BME280;49208;50.874;6.466;2022-07-21T07:45:35;100711.31;;;30.17;46.02
63115;BME280;49208;50.874;6.466;2022-07-21T07:48:01;100715.59;;;30.67;44.28
63115;BME280;49208;50.874;6.466;2022-07-21T07:50:26;100713.31;;;30.48;42.17
63115;BME280;49208;50.874;6.466;2022-07-21T07:52:51;100715.00;;;29.93;44.65
63115;BME280;49208;50.874;6.466;2022-07-21T07:55:17;100715.00;;;29.60;44.05
63115;BME280;49208;50.874;6.466;2022-07-21T07:57:43;100712.94;;;29.87;45.37
63115;BME280;49208;50.874;6.466;2022-07-21T08:00:14;100711.41;;;29.76;44.16
63115;BME280;49208;50.874;6.466;2022-07-21T08:02:40;100708.50;;;29.28;44.59
63115;BME280;49208;50.874;6.466;2022-07-21T08:05:06;100701.44;;;28.58;47.52
63115;BME280;49208;50.874;6.466;2022-07-21T08:07:34;100723.22;;;27.99;47.60
63115;BME280;49208;50.874;6.466;2022-07-21T08:10:00;100718.13;;;27.42;49.08
63115;BME280;49208;50.874;6.466;2022-07-21T08:12:25;100722.13;;;26.85;50.27
63115;BME280;49208;50.874;6.466;2022-07-21T08:14:51;100710.53;;;26.45;51.27
63115;BME280;49208;50.874;6.466;2022-07-21T08:17:16;100719.09;;;26.23;51.42
63115;BME280;49208;50.874;6.466;2022-07-21T08:19:43;100711.84;;;26.41;50.16
63115;BME280;49208;50.874;6.466;2022-07-21T08:22:08;100720.84;;;26.61;49.83
63115;BME280;49208;50.874;6.466;2022-07-21T08:24:33;100729.47;;;26.56;49.72
63115;BME280;49208;50.874;6.466;2022-07-21T08:26:59;100727.34;;;26.50;50.66
63115;BME280;49208;50.874;6.466;2022-07-21T08:29:24;100716.97;;;26.16;50.22
63115;BME280;49208;50.874;6.466;2022-07-21T08:31:50;100720.69;;;25.49;51.91
63115;BME280;49208;50.874;6.466;2022-07-21T08:34:15;100723.38;;;25.10;53.17
63115;BME280;49208;50.874;6.466;2022-07-21T08:36:40;100710.44;;;24.83;54.91
63115;BME280;49208;50.874;6.466;2022-07-21T08:39:06;100719.34;;;24.94;55.00
63115;BME280;49208;50.874;6.466;2022-07-21T08:41:32;100710.88;;;24.88;55.38
63115;BME280;49208;50.874;6.466;2022-07-21T08:43:57;100708.44;;;24.94;55.80
63115;BME280;49208;50.874;6.466;2022-07-21T08:46:23;100706.72;;;24.84;54.80
63115;BME280;49208;50.874;6.466;2022-07-21T08:48:50;100711.56;;;24.70;54.88
63115;BME280;49208;50.874;6.466;2022-07-21T08:51:16;100710.41;;;24.73;54.98
63115;BME280;49208;50.874;6.466;2022-07-21T08:53:46;100717.41;;;24.56;54.70
63115;BME280;49208;50.874;6.466;2022-07-21T08:56:12;100714.41;;;24.69;56.18
63115;BME280;49208;50.874;6.466;2022-07-21T08:58:37;100713.44;;;24.79;55.15
63115;BME280;49208;50.874;6.466;2022-07-21T09:01:03;100713.44;;;24.79;55.13
63115;BME280;49208;50.874;6.466;2022-07-21T09:03:29;100709.09;;;24.57;54.48
63115;BME280;49208;50.874;6.466;2022-07-21T09:06:09;100720.06;;;24.46;55.65
63115;BME280;49208;50.874;6.466;2022-07-21T09:11:12;100718.34;;;24.14;56.02
63115;BME280;49208;50.874;6.466;2022-07-21T09:13:41;100723.22;;;23.90;57.08
63115;BME280;49208;50.874;6.466;2022-07-21T09:16:08;100726.53;;;23.72;58.06
63115;BME280;49208;50.874;6.466;2022-07-21T09:18:33;100722.69;;;23.75;57.80
63115;BME280;49208;50.874;6.466;2022-07-21T09:20:59;100716.19;;;24.08;58.29
63115;BME280;49208;50.874;6.466;2022-07-21T09:23:27;100713.72;;;24.36;54.12
63115;BME280;49208;50.874;6.466;2022-07-21T09:25:55;100722.63;;;24.78;54.91
63115;BME280;49208;50.874;6.466;2022-07-21T09:28:24;100725.50;;;24.96;51.95
63115;BME280;49208;50.874;6.466;2022-07-21T09:31:03;100727.44;;;25.25;52.42
63115;BME280;49208;50.874;6.466;2022-07-21T09:33:31;100730.16;;;25.54;52.96
63115;BME280;49208;50.874;6.466;2022-07-21T09:36:09;100728.84;;;25.58;51.90
63115;BME280;49208;50.874;6.466;2022-07-21T09:38:42;100733.63;;;25.47;51.44
63115;BME280;49208;50.874;6.466;2022-07-21T09:41:15;100738.16;;;25.17;51.46
63115;BME280;49208;50.874;6.466;2022-07-21T09:43:44;100728.94;;;24.98;52.36
63115;BME280;49208;50.874;6.466;2022-07-21T09:46:30;100726.16;;;24.69;53.01
63115;BME280;49208;50.874;6.466;2022-07-21T09:48:58;100722.94;;;24.45;53.70
63115;BME280;49208;50.874;6.466;2022-07-21T09:51:33;100726.75;;;24.11;53.74
63115;BME280;49208;50.874;6.466;2022-07-21T09:54:02;100737.41;;;23.72;55.08
63115;BME280;49208;50.874;6.466;2022-07-21T09:56:30;100737.22;;;23.32;56.94
63115;BME280;49208;50.874;6.466;2022-07-21T09:58:58;100735.44;;;22.98;57.90
63115;BME280;49208;50.874;6.466;2022-07-21T10:01:26;100745.16;;;22.69;58.95
63115;BME280;49208;50.874;6.466;2022-07-21T10:03:53;100751.44;;;22.47;59.96
63115;BME280;49208;50.874;6.466;2022-07-21T10:06:22;100743.81;;;22.29;62.06
63115;BME280;49208;50.874;6.466;2022-07-21T10:08:48;100752.34;;;22.25;63.67
63115;BME280;49208;50.874;6.466;2022-07-21T10:11:14;100750.47;;;22.25;65.29
63115;BME280;49208;50.874;6.466;2022-07-21T10:13:40;100758.72;;;22.24;65.58
63115;BME280;49208;50.874;6.466;2022-07-21T10:16:08;100760.31;;;22.26;66.71
63115;BME280;49208;50.874;6.466;2022-07-21T10:18:38;100756.72;;;22.14;66.60
63115;BME280;49208;50.874;6.466;2022-07-21T10:21:14;100760.28;;;22.15;67.28
63115;BME280;49208;50.874;6.466;2022-07-21T10:23:43;100759.44;;;22.14;67.53
63115;BME280;49208;50.874;6.466;2022-07-21T10:26:10;100761.53;;;22.11;68.20
63115;BME280;49208;50.874;6.466;2022-07-21T10:28:36;100768.66;;;22.00;67.03
63115;BME280;49208;50.874;6.466;2022-07-21T10:31:23;100772.31;;;21.88;69.86
63115;BME280;49208;50.874;6.466;2022-07-21T10:42:15;100777.72;;;21.29;71.53
63115;BME280;49208;50.874;6.466;2022-07-21T10:44:43;100777.28;;;21.11;74.02
63115;BME280;49208;50.874;6.466;2022-07-21T10:47:14;100776.91;;;20.91;74.87
63115;BME280;49208;50.874;6.466;2022-07-21T10:57:48;100792.03;;;20.44;77.80
63115;BME280;49208;50.874;6.466;2022-07-21T11:00:34;100803.06;;;20.28;78.28
63115;BME280;49208;50.874;6.466;2022-07-21T11:03:03;100799.78;;;20.10;79.38
63115;BME280;49208;50.874;6.466;2022-07-21T11:05:32;100802.59;;;19.96;80.70
63115;BME280;49208;50.874;6.466;2022-07-21T11:08:14;100803.44;;;19.84;82.43
63115;BME280;49208;50.874;6.466;2022-07-21T11:10:44;100796.06;;;19.73;84.04
63115;BME280;49208;50.874;6.466;2022-07-21T11:13:10;100799.16;;;19.67;84.43
63115;BME280;49208;50.874;6.466;2022-07-21T11:15:46;100794.31;;;19.59;84.68
63115;BME280;49208;50.874;6.466;2022-07-21T11:18:19;100794.91;;;19.50;85.44
63115;BME280;49208;50.874;6.466;2022-07-21T11:21:14;100797.25;;;19.42;86.08
63115;BME280;49208;50.874;6.466;2022-07-21T11:23:47;100795.28;;;19.31;86.33
63115;BME280;49208;50.874;6.466;2022-07-21T11:26:17;100800.84;;;19.28;87.16
63115;BME280;49208;50.874;6.466;2022-07-21T11:28:44;100802.06;;;19.24;88.10
63115;BME280;49208;50.874;6.466;2022-07-21T11:31:16;100801.94;;;19.25;88.39
63115;BME280;49208;50.874;6.466;2022-07-21T11:33:45;100798.47;;;19.23;88.08
63115;BME280;49208;50.874;6.466;2022-07-21T11:36:23;100789.75;;;19.20;88.18
63115;BME280;49208;50.874;6.466;2022-07-21T11:39:03;100806.34;;;19.13;88.85
63115;BME280;49208;50.874;6.466;2022-07-21T11:41:29;100799.41;;;19.09;89.97
63115;BME280;49208;50.874;6.466;2022-07-21T11:43:55;100797.56;;;19.10;89.45
63115;BME280;49208;50.874;6.466;2022-07-21T11:46:20;100799.28;;;19.11;89.94
63115;BME280;49208;50.874;6.466;2022-07-21T11:48:45;100807.50;;;19.09;89.66
63115;BME280;49208;50.874;6.466;2022-07-21T11:51:11;100801.34;;;19.07;89.99
63115;BME280;49208;50.874;6.466;2022-07-21T11:53:43;100802.50;;;19.03;90.05
63115;BME280;49208;50.874;6.466;2022-07-21T11:56:15;100794.59;;;19.00;90.18
63115;BME280;49208;50.874;6.466;2022-07-21T11:58:42;100796.75;;;18.95;90.15
63115;BME280;49208;50.874;6.466;2022-07-21T12:01:08;100797.78;;;18.92;90.87
63115;BME280;49208;50.874;6.466;2022-07-21T12:03:34;100791.53;;;18.92;91.78
63115;BME280;49208;50.874;6.466;2022-07-21T12:06:02;100791.63;;;18.90;91.14
63115;BME280;49208;50.874;6.466;2022-07-21T12:08:29;100795.38;;;18.88;90.98
63115;BME280;49208;50.874;6.466;2022-07-21T12:11:08;100797.22;;;18.87;91.69
63115;BME280;49208;50.874;6.466;2022-07-21T12:13:56;100793.69;;;18.87;92.08
63115;BME280;49208;50.874;6.466;2022-07-21T12:16:23;100799.72;;;18.90;92.85
63115;BME280;49208;50.874;6.466;2022-07-21T12:18:49;100791.75;;;18.89;92.83
63115;BME280;49208;50.874;6.466;2022-07-21T12:21:43;100796.16;;;18.90;93.00
63115;BME280;49208;50.874;6.466;2022-07-21T12:24:08;100791.94;;;18.86;92.41
63115;BME280;49208;50.874;6.466;2022-07-21T12:26:33;100788.56;;;18.82;92.51
63115;BME280;49208;50.874;6.466;2022-07-21T12:28:59;100800.50;;;18.78;93.19
63115;BME280;49208;50.874;6.466;2022-07-21T12:31:25;100793.22;;;18.80;93.14
63115;BME280;49208;50.874;6.466;2022-07-21T12:33:53;100794.84;;;18.83;93.69
63115;BME280;49208;50.874;6.466;2022-07-21T12:36:19;100790.97;;;18.87;94.21
63115;BME280;49208;50.874;6.466;2022-07-21T12:38:46;100788.84;;;18.92;94.54
63115;BME280;49208;50.874;6.466;2022-07-21T12:41:17;100801.16;;;18.96;93.85
63115;BME280;49208;50.874;6.466;2022-07-21T12:43:43;100800.09;;;18.98;94.35
63115;BME280;49208;50.874;6.466;2022-07-21T12:46:14;100793.53;;;19.03;94.11
63115;BME280;49208;50.874;6.466;2022-07-21T12:48:41;100802.50;;;19.03;94.29
63115;BME280;49208;50.874;6.466;2022-07-21T12:51:15;100796.91;;;19.06;94.25
63115;BME280;49208;50.874;6.466;2022-07-21T12:53:52;100805.66;;;19.10;94.12
63115;BME280;49208;50.874;6.466;2022-07-21T12:56:20;100802.19;;;19.08;94.47
63115;BME280;49208;50.874;6.466;2022-07-21T12:58:47;100811.16;;;19.08;94.10
63115;BME280;49208;50.874;6.466;2022-07-21T13:01:16;100809.44;;;19.07;94.82
63115;BME280;49208;50.874;6.466;2022-07-21T13:03:42;100819.56;;;19.04;94.20
63115;BME280;49208;50.874;6.466;2022-07-21T13:06:09;100820.81;;;18.98;92.84
63115;BME280;49208;50.874;6.466;2022-07-21T13:08:36;100822.28;;;18.89;92.39
63115;BME280;49208;50.874;6.466;2022-07-21T13:11:02;100815.91;;;18.90;92.64